sensor_id;sensor_type;location;lat;lon;timestamp;P1;durP1;ratioP1;P2;durP2;ratioP2
10295;SDS011;5193;51.032;6.356;2023-05-27T00:01:17;16.40;;;4.27;;
10295;SDS011;5193;51.032;6.356;2023-05-27T00:03:44;17.93;;;4.93;;
10295;SDS011;5193;51.032;6.356;2023-05-27T00:06:10;15.13;;;3.77;;
10295;SDS011;5193;51.032;6.356;2023-05-27T00:08:36;16.17;;;4.80;;
10295;SDS011;5193;51.032;6.356;2023-05-27T00:11:01;16.20;;;4.47;;
10295;SDS011;5193;51.032;6.356;2023-05-27T00:13:27;16.23;;;4.80;;
10295;SDS011;5193;51.032;6.356;2023-05-27T00:15:53;16.07;;;4.70;;
10295;SDS011;5193;51.032;6.356;2023-05-27T00:18:18;12.77;;;4.33;;
10295;SDS011;5193;51.032;6.356;2023-05-27T00:20:45;11.60;;;4.03;;
10295;SDS011;5193;51.032;6.356;2023-05-27T00:23:10;17.13;;;4.77;;
10295;SDS011;5193;51.032;6.356;2023-05-27T00:25:36;18.27;;;5.17;;
10295;SDS011;5193;51.032;6.356;2023-05-27T00:28:01;16.27;;;5.00;;
10295;SDS011;5193;51.032;6.356;2023-05-27T00:30:27;11.73;;;4.53;;
10295;SDS011;5193;51.032;6.356;2023-05-27T00:32:53;12.77;;;4.43;;
10295;SDS011;5193;51.032;6.356;2023-05-27T00:35:18;15.67;;;4.57;;
10295;SDS011;5193;51.032;6.356;2023-05-27T00:37:44;18.17;;;5.33;;
10295;SDS011;5193;51.032;6.356;2023-05-27T00:40:10;15.87;;;4.80;;
10295;SDS011;5193;51.032;6.356;2023-05-27T00:42:36;18.30;;;5.70;;
10295;SDS011;5193;51.032;6.356;2023-05-27T00:45:02;26.50;;;5.40;;
10295;SDS011;5193;51.032;6.356;2023-05-27T00:47:29;14.03;;;4.57;;
10295;SDS011;5193;51.032;6.356;2023-05-27T00:49:57;14.27;;;4.77;;
10295;SDS011;5193;51.032;6.356;2023-05-27T00:52:23;18.03;;;5.03;;
10295;SDS011;5193;51.032;6.356;2023-05-27T00:54:50;15.80;;;5.30;;
10295;SDS011;5193;51.032;6.356;2023-05-27T00:57:16;17.00;;;4.73;;
10295;SDS011;5193;51.032;6.356;2023-05-27T00:59:42;18.10;;;4.93;;
10295;SDS011;5193;51.032;6.356;2023-05-27T01:02:08;18.50;;;5.03;;
10295;SDS011;5193;51.032;6.356;2023-05-27T01:04:33;11.87;;;4.63;;
10295;SDS011;5193;51.032;6.356;2023-05-27T01:09:43;14.87;;;4.53;;
10295;SDS011;5193;51.032;6.356;2023-05-27T01:15:02;14.33;;;4.33;;
10295;SDS011;5193;51.032;6.356;2023-05-27T01:17:30;14.37;;;4.33;;
10295;SDS011;5193;51.032;6.356;2023-05-27T01:19:57;16.07;;;4.50;;
10295;SDS011;5193;51.032;6.356;2023-05-27T01:22:30;17.90;;;4.37;;
10295;SDS011;5193;51.032;6.356;2023-05-27T01:24:57;12.27;;;3.73;;
10295;SDS011;5193;51.032;6.356;2023-05-27T01:27:22;13.33;;;4.77;;
10295;SDS011;5193;51.032;6.356;2023-05-27T01:29:52;16.77;;;4.73;;
10295;SDS011;5193;51.032;6.356;2023-05-27T01:32:19;13.27;;;4.63;;
10295;SDS011;5193;51.032;6.356;2023-05-27T01:34:50;18.13;;;4.50;;
10295;SDS011;5193;51.032;6.356;2023-05-27T01:37:23;12.43;;;3.97;;
10295;SDS011;5193;51.032;6.356;2023-05-27T01:39:51;16.90;;;4.70;;
10295;SDS011;5193;51.032;6.356;2023-05-27T01:42:17;17.90;;;4.83;;
10295;SDS011;5193;51.032;6.356;2023-05-27T01:44:45;11.17;;;4.33;;
10295;SDS011;5193;51.032;6.356;2023-05-27T01:47:11;18.33;;;5.30;;
10295;SDS011;5193;51.032;6.356;2023-05-27T01:49:37;13.07;;;4.53;;
10295;SDS011;5193;51.032;6.356;2023-05-27T01:52:03;11.10;;;3.70;;
10295;SDS011;5193;51.032;6.356;2023-05-27T01:54:29;12.20;;;4.23;;
10295;SDS011;5193;51.032;6.356;2023-05-27T01:56:54;20.17;;;4.80;;
10295;SDS011;5193;51.032;6.356;2023-05-27T01:59:20;15.73;;;4.50;;
10295;SDS011;5193;51.032;6.356;2023-05-27T02:01:45;14.20;;;5.37;;
10295;SDS011;5193;51.032;6.356;2023-05-27T02:04:11;13.43;;;4.63;;
10295;SDS011;5193;51.032;6.356;2023-05-27T02:06:36;15.83;;;4.47;;
10295;SDS011;5193;51.032;6.356;2023-05-27T02:09:02;17.90;;;4.47;;
10295;SDS011;5193;51.032;6.356;2023-05-27T02:11:28;14.53;;;4.33;;
10295;SDS011;5193;51.032;6.356;2023-05-27T02:13:54;14.43;;;5.13;;
10295;SDS011;5193;51.032;6.356;2023-05-27T02:16:20;15.03;;;3.87;;
10295;SDS011;5193;51.032;6.356;2023-05-27T02:18:49;18.27;;;3.90;;
10295;SDS011;5193;51.032;6.356;2023-05-27T02:21:15;16.27;;;5.30;;
10295;SDS011;5193;51.032;6.356;2023-05-27T02:23:41;15.70;;;4.97;;
10295;SDS011;5193;51.032;6.356;2023-05-27T02:26:06;17.67;;;4.30;;
10295;SDS011;5193;51.032;6.356;2023-05-27T02:28:32;18.17;;;4.67;;
10295;SDS011;5193;51.032;6.356;2023-05-27T02:30:58;19.00;;;4.50;;
10295;SDS011;5193;51.032;6.356;2023-05-27T02:33:24;18.47;;;4.50;;
10295;SDS011;5193;51.032;6.356;2023-05-27T02:35:50;14.80;;;4.67;;
10295;SDS011;5193;51.032;6.356;2023-05-27T02:38:15;16.40;;;4.60;;
10295;SDS011;5193;51.032;6.356;2023-05-27T02:40:41;18.40;;;5.13;;
10295;SDS011;5193;51.032;6.356;2023-05-27T02:43:07;16.93;;;4.57;;
10295;SDS011;5193;51.032;6.356;2023-05-27T02:45:33;18.03;;;4.83;;
10295;SDS011;5193;51.032;6.356;2023-05-27T02:47:59;17.07;;;4.97;;
10295;SDS011;5193;51.032;6.356;2023-05-27T02:50:26;14.63;;;4.53;;
10295;SDS011;5193;51.032;6.356;2023-05-27T02:52:52;28.63;;;5.57;;
10295;SDS011;5193;51.032;6.356;2023-05-27T02:55:18;11.47;;;4.57;;
10295;SDS011;5193;51.032;6.356;2023-05-27T02:57:43;15.87;;;4.33;;
10295;SDS011;5193;51.032;6.356;2023-05-27T03:00:09;15.03;;;4.77;;
10295;SDS011;5193;51.032;6.356;2023-05-27T03:02:36;16.20;;;4.30;;
10295;SDS011;5193;51.032;6.356;2023-05-27T03:05:02;22.17;;;4.73;;
10295;SDS011;5193;51.032;6.356;2023-05-27T03:07:28;16.37;;;4.83;;
10295;SDS011;5193;51.032;6.356;2023-05-27T03:09:54;16.80;;;4.03;;
10295;SDS011;5193;51.032;6.356;2023-05-27T03:12:21;16.07;;;4.33;;
10295;SDS011;5193;51.032;6.356;2023-05-27T03:14:47;19.37;;;4.53;;
10295;SDS011;5193;51.032;6.356;2023-05-27T03:17:13;15.23;;;5.17;;
10295;SDS011;5193;51.032;6.356;2023-05-27T03:19:39;12.17;;;4.30;;
10295;SDS011;5193;51.032;6.356;2023-05-27T03:22:05;13.33;;;4.17;;
10295;SDS011;5193;51.032;6.356;2023-05-27T03:24:31;22.40;;;5.70;;
10295;SDS011;5193;51.032;6.356;2023-05-27T03:26:58;13.67;;;4.57;;
10295;SDS011;5193;51.032;6.356;2023-05-27T03:29:24;17.30;;;5.03;;
10295;SDS011;5193;51.032;6.356;2023-05-27T03:31:50;17.27;;;5.27;;
10295;SDS011;5193;51.032;6.356;2023-05-27T03:34:15;15.10;;;5.03;;
10295;SDS011;5193;51.032;6.356;2023-05-27T03:36:41;16.60;;;5.00;;
10295;SDS011;5193;51.032;6.356;2023-05-27T03:39:14;15.93;;;5.10;;
10295;SDS011;5193;51.032;6.356;2023-05-27T03:41:39;17.30;;;4.83;;
10295;SDS011;5193;51.032;6.356;2023-05-27T03:44:05;10.87;;;4.50;;
10295;SDS011;5193;51.032;6.356;2023-05-27T03:46:31;16.37;;;4.57;;
10295;SDS011;5193;51.032;6.356;2023-05-27T03:48:58;11.70;;;4.10;;
10295;SDS011;5193;51.032;6.356;2023-05-27T03:51:23;23.00;;;4.90;;
10295;SDS011;5193;51.032;6.356;2023-05-27T03:53:49;16.13;;;5.33;;
10295;SDS011;5193;51.032;6.356;2023-05-27T03:56:15;18.93;;;5.50;;
10295;SDS011;5193;51.032;6.356;2023-05-27T03:58:41;18.90;;;5.53;;
10295;SDS011;5193;51.032;6.356;2023-05-27T04:01:06;14.30;;;4.60;;
10295;SDS011;5193;51.032;6.356;2023-05-27T04:03:33;14.43;;;5.33;;
10295;SDS011;5193;51.032;6.356;2023-05-27T04:05:58;16.23;;;5.50;;
10295;SDS011;5193;51.032;6.356;2023-05-27T04:08:24;20.53;;;5.20;;
10295;SDS011;5193;51.032;6.356;2023-05-27T04:10:53;14.90;;;5.27;;
10295;SDS011;5193;51.032;6.356;2023-05-27T04:13:21;15.57;;;4.50;;
10295;SDS011;5193;51.032;6.356;2023-05-27T04:15:47;18.03;;;4.97;;
10295;SDS011;5193;51.032;6.356;2023-05-27T04:18:13;17.50;;;5.13;;
10295;SDS011;5193;51.032;6.356;2023-05-27T04:20:40;22.27;;;6.33;;
10295;SDS011;5193;51.032;6.356;2023-05-27T04:23:08;18.07;;;5.13;;
10295;SDS011;5193;51.032;6.356;2023-05-27T04:25:35;16.37;;;4.77;;
10295;SDS011;5193;51.032;6.356;2023-05-27T04:28:03;18.57;;;5.53;;
10295;SDS011;5193;51.032;6.356;2023-05-27T04:30:30;15.63;;;5.70;;
10295;SDS011;5193;51.032;6.356;2023-05-27T04:32:56;15.83;;;4.77;;
10295;SDS011;5193;51.032;6.356;2023-05-27T04:35:21;18.37;;;5.50;;
10295;SDS011;5193;51.032;6.356;2023-05-27T04:37:48;17.00;;;5.63;;
10295;SDS011;5193;51.032;6.356;2023-05-27T04:40:13;18.33;;;5.47;;
10295;SDS011;5193;51.032;6.356;2023-05-27T04:42:39;18.17;;;5.57;;
10295;SDS011;5193;51.032;6.356;2023-05-27T04:45:05;21.57;;;4.90;;
10295;SDS011;5193;51.032;6.356;2023-05-27T04:47:34;15.70;;;4.97;;
10295;SDS011;5193;51.032;6.356;2023-05-27T04:50:02;22.37;;;6.80;;
10295;SDS011;5193;51.032;6.356;2023-05-27T04:52:29;20.80;;;5.67;;
10295;SDS011;5193;51.032;6.356;2023-05-27T04:55:02;14.63;;;5.73;;
10295;SDS011;5193;51.032;6.356;2023-05-27T04:57:30;15.63;;;5.63;;
10295;SDS011;5193;51.032;6.356;2023-05-27T04:59:56;13.30;;;5.10;;
10295;SDS011;5193;51.032;6.356;2023-05-27T05:02:45;13.87;;;4.87;;
10295;SDS011;5193;51.032;6.356;2023-05-27T05:05:12;26.77;;;6.33;;
10295;SDS011;5193;51.032;6.356;2023-05-27T05:07:39;17.23;;;6.03;;
10295;SDS011;5193;51.032;6.356;2023-05-27T05:12:32;18.60;;;5.43;;
10295;SDS011;5193;51.032;6.356;2023-05-27T05:14:58;19.93;;;6.50;;
10295;SDS011;5193;51.032;6.356;2023-05-27T05:17:24;19.03;;;5.97;;
10295;SDS011;5193;51.032;6.356;2023-05-27T05:19:50;22.60;;;6.07;;
10295;SDS011;5193;51.032;6.356;2023-05-27T05:22:16;18.20;;;5.73;;
10295;SDS011;5193;51.032;6.356;2023-05-27T05:24:48;22.77;;;6.97;;
10295;SDS011;5193;51.032;6.356;2023-05-27T05:27:14;19.57;;;6.20;;
10295;SDS011;5193;51.032;6.356;2023-05-27T05:29:40;14.33;;;6.17;;
10295;SDS011;5193;51.032;6.356;2023-05-27T05:32:06;19.67;;;6.73;;
10295;SDS011;5193;51.032;6.356;2023-05-27T05:34:35;18.80;;;5.83;;
10295;SDS011;5193;51.032;6.356;2023-05-27T05:37:01;16.77;;;5.67;;
10295;SDS011;5193;51.032;6.356;2023-05-27T05:39:27;15.30;;;5.43;;
10295;SDS011;5193;51.032;6.356;2023-05-27T05:41:53;18.93;;;5.43;;
10295;SDS011;5193;51.032;6.356;2023-05-27T05:44:18;17.20;;;5.80;;
10295;SDS011;5193;51.032;6.356;2023-05-27T05:46:44;13.77;;;5.77;;
10295;SDS011;5193;51.032;6.356;2023-05-27T05:49:10;22.63;;;6.07;;
10295;SDS011;5193;51.032;6.356;2023-05-27T05:51:35;21.03;;;5.83;;
10295;SDS011;5193;51.032;6.356;2023-05-27T05:54:01;21.43;;;5.87;;
10295;SDS011;5193;51.032;6.356;2023-05-27T05:56:26;19.23;;;6.17;;
10295;SDS011;5193;51.032;6.356;2023-05-27T05:58:52;16.23;;;5.00;;
10295;SDS011;5193;51.032;6.356;2023-05-27T06:01:18;21.47;;;6.37;;
10295;SDS011;5193;51.032;6.356;2023-05-27T06:03:43;18.57;;;5.47;;
10295;SDS011;5193;51.032;6.356;2023-05-27T06:06:09;18.37;;;6.30;;
10295;SDS011;5193;51.032;6.356;2023-05-27T06:08:35;19.60;;;6.03;;
10295;SDS011;5193;51.032;6.356;2023-05-27T06:11:01;14.13;;;5.50;;
10295;SDS011;5193;51.032;6.356;2023-05-27T06:13:27;13.47;;;5.40;;
10295;SDS011;5193;51.032;6.356;2023-05-27T06:15:52;19.27;;;6.87;;
10295;SDS011;5193;51.032;6.356;2023-05-27T06:18:20;19.40;;;5.33;;
10295;SDS011;5193;51.032;6.356;2023-05-27T06:20:46;14.03;;;5.73;;
10295;SDS011;5193;51.032;6.356;2023-05-27T06:23:11;22.73;;;6.10;;
10295;SDS011;5193;51.032;6.356;2023-05-27T06:25:37;18.63;;;5.90;;
10295;SDS011;5193;51.032;6.356;2023-05-27T06:28:02;13.73;;;5.67;;
10295;SDS011;5193;51.032;6.356;2023-05-27T06:30:28;21.73;;;6.00;;
10295;SDS011;5193;51.032;6.356;2023-05-27T06:32:54;18.80;;;5.80;;
10295;SDS011;5193;51.032;6.356;2023-05-27T06:35:19;19.40;;;6.00;;
10295;SDS011;5193;51.032;6.356;2023-05-27T06:37:45;14.33;;;6.00;;
10295;SDS011;5193;51.032;6.356;2023-05-27T06:40:11;19.13;;;6.10;;
10295;SDS011;5193;51.032;6.356;2023-05-27T06:42:37;18.57;;;5.57;;
10295;SDS011;5193;51.032;6.356;2023-05-27T06:45:02;20.03;;;5.80;;
10295;SDS011;5193;51.032;6.356;2023-05-27T06:47:28;15.50;;;5.40;;
10295;SDS011;5193;51.032;6.356;2023-05-27T06:49:54;21.80;;;6.10;;
10295;SDS011;5193;51.032;6.356;2023-05-27T06:52:20;14.37;;;5.50;;
10295;SDS011;5193;51.032;6.356;2023-05-27T06:54:46;15.60;;;5.40;;
10295;SDS011;5193;51.032;6.356;2023-05-27T06:57:12;19.93;;;6.20;;
10295;SDS011;5193;51.032;6.356;2023-05-27T06:59:38;19.00;;;5.50;;
10295;SDS011;5193;51.032;6.356;2023-05-27T07:02:04;13.67;;;5.33;;
10295;SDS011;5193;51.032;6.356;2023-05-27T07:04:31;19.17;;;4.97;;
10295;SDS011;5193;51.032;6.356;2023-05-27T07:06:57;18.13;;;5.17;;
10295;SDS011;5193;51.032;6.356;2023-05-27T07:09:23;21.87;;;6.43;;
10295;SDS011;5193;51.032;6.356;2023-05-27T07:11:48;16.07;;;5.07;;
10295;SDS011;5193;51.032;6.356;2023-05-27T07:14:14;14.40;;;4.73;;
10295;SDS011;5193;51.032;6.356;2023-05-27T07:16:40;24.00;;;5.53;;
10295;SDS011;5193;51.032;6.356;2023-05-27T07:19:06;18.77;;;5.20;;
10295;SDS011;5193;51.032;6.356;2023-05-27T07:21:31;14.77;;;5.73;;
10295;SDS011;5193;51.032;6.356;2023-05-27T07:23:57;21.60;;;5.97;;
10295;SDS011;5193;51.032;6.356;2023-05-27T07:26:27;18.63;;;5.07;;
10295;SDS011;5193;51.032;6.356;2023-05-27T07:28:59;18.73;;;5.67;;
10295;SDS011;5193;51.032;6.356;2023-05-27T07:31:26;9.70;;;4.97;;
10295;SDS011;5193;51.032;6.356;2023-05-27T07:33:52;14.13;;;4.90;;
10295;SDS011;5193;51.032;6.356;2023-05-27T07:36:18;15.33;;;4.37;;
10295;SDS011;5193;51.032;6.356;2023-05-27T07:38:44;11.00;;;4.60;;
10295;SDS011;5193;51.032;6.356;2023-05-27T07:41:10;15.50;;;5.23;;
10295;SDS011;5193;51.032;6.356;2023-05-27T07:43:36;16.43;;;4.90;;
10295;SDS011;5193;51.032;6.356;2023-05-27T07:46:02;21.13;;;5.30;;
10295;SDS011;5193;51.032;6.356;2023-05-27T07:48:27;19.87;;;4.73;;
10295;SDS011;5193;51.032;6.356;2023-05-27T07:50:54;17.23;;;4.60;;
10295;SDS011;5193;51.032;6.356;2023-05-27T07:53:20;15.03;;;4.70;;
10295;SDS011;5193;51.032;6.356;2023-05-27T07:55:45;16.90;;;4.60;;
10295;SDS011;5193;51.032;6.356;2023-05-27T07:58:12;13.83;;;5.57;;
10295;SDS011;5193;51.032;6.356;2023-05-27T08:00:37;14.93;;;4.90;;
10295;SDS011;5193;51.032;6.356;2023-05-27T08:03:03;15.63;;;5.33;;
10295;SDS011;5193;51.032;6.356;2023-05-27T08:05:28;11.37;;;4.93;;
10295;SDS011;5193;51.032;6.356;2023-05-27T08:07:54;17.87;;;6.10;;
10295;SDS011;5193;51.032;6.356;2023-05-27T08:10:20;14.70;;;4.77;;
10295;SDS011;5193;51.032;6.356;2023-05-27T08:12:46;22.13;;;5.73;;
10295;SDS011;5193;51.032;6.356;2023-05-27T08:15:11;12.57;;;4.40;;
10295;SDS011;5193;51.032;6.356;2023-05-27T08:17:37;9.87;;;4.77;;
10295;SDS011;5193;51.032;6.356;2023-05-27T08:20:03;12.27;;;4.53;;
10295;SDS011;5193;51.032;6.356;2023-05-27T08:22:30;17.20;;;5.20;;
10295;SDS011;5193;51.032;6.356;2023-05-27T08:24:56;15.43;;;4.40;;
10295;SDS011;5193;51.032;6.356;2023-05-27T08:27:41;13.43;;;4.47;;
10295;SDS011;5193;51.032;6.356;2023-05-27T08:30:12;15.07;;;4.63;;
10295;SDS011;5193;51.032;6.356;2023-05-27T08:32:38;18.17;;;5.20;;
10295;SDS011;5193;51.032;6.356;2023-05-27T08:35:05;11.73;;;4.50;;
10295;SDS011;5193;51.032;6.356;2023-05-27T08:37:31;13.13;;;5.20;;
10295;SDS011;5193;51.032;6.356;2023-05-27T08:39:57;17.10;;;4.70;;
10295;SDS011;5193;51.032;6.356;2023-05-27T08:42:23;11.27;;;5.07;;
10295;SDS011;5193;51.032;6.356;2023-05-27T08:44:49;15.87;;;4.47;;
10295;SDS011;5193;51.032;6.356;2023-05-27T08:47:15;12.33;;;3.90;;
10295;SDS011;5193;51.032;6.356;2023-05-27T08:49:41;17.13;;;5.30;;
10295;SDS011;5193;51.032;6.356;2023-05-27T08:52:07;13.10;;;4.60;;
10295;SDS011;5193;51.032;6.356;2023-05-27T08:54:35;12.03;;;4.30;;
10295;SDS011;5193;51.032;6.356;2023-05-27T08:57:02;18.10;;;5.10;;
10295;SDS011;5193;51.032;6.356;2023-05-27T08:59:32;15.17;;;5.00;;
10295;SDS011;5193;51.032;6.356;2023-05-27T09:02:00;20.53;;;4.73;;
10295;SDS011;5193;51.032;6.356;2023-05-27T09:04:27;13.63;;;4.20;;
10295;SDS011;5193;51.032;6.356;2023-05-27T09:06:53;14.70;;;4.77;;
10295;SDS011;5193;51.032;6.356;2023-05-27T09:09:18;16.47;;;5.20;;
10295;SDS011;5193;51.032;6.356;2023-05-27T09:11:45;12.90;;;4.40;;
10295;SDS011;5193;51.032;6.356;2023-05-27T09:14:19;13.17;;;4.33;;
10295;SDS011;5193;51.032;6.356;2023-05-27T09:16:48;17.87;;;5.20;;
10295;SDS011;5193;51.032;6.356;2023-05-27T09:19:17;13.57;;;4.23;;
10295;SDS011;5193;51.032;6.356;2023-05-27T09:21:43;15.27;;;5.17;;
10295;SDS011;5193;51.032;6.356;2023-05-27T09:24:09;13.20;;;4.60;;
10295;SDS011;5193;51.032;6.356;2023-05-27T09:26:35;15.43;;;4.47;;
10295;SDS011;5193;51.032;6.356;2023-05-27T09:29:05;18.63;;;4.50;;
10295;SDS011;5193;51.032;6.356;2023-05-27T09:31:40;13.90;;;4.77;;
10295;SDS011;5193;51.032;6.356;2023-05-27T09:34:13;18.77;;;5.07;;
10295;SDS011;5193;51.032;6.356;2023-05-27T09:36:42;10.30;;;4.03;;
10295;SDS011;5193;51.032;6.356;2023-05-27T09:39:13;17.67;;;4.43;;
10295;SDS011;5193;51.032;6.356;2023-05-27T09:41:39;12.63;;;4.03;;
10295;SDS011;5193;51.032;6.356;2023-05-27T09:44:06;13.83;;;4.27;;
10295;SDS011;5193;51.032;6.356;2023-05-27T09:46:32;10.63;;;3.87;;
10295;SDS011;5193;51.032;6.356;2023-05-27T09:48:58;16.30;;;4.70;;
10295;SDS011;5193;51.032;6.356;2023-05-27T09:51:28;15.97;;;4.27;;
10295;SDS011;5193;51.032;6.356;2023-05-27T09:53:54;17.60;;;5.37;;
10295;SDS011;5193;51.032;6.356;2023-05-27T09:56:24;19.13;;;4.20;;
10295;SDS011;5193;51.032;6.356;2023-05-27T09:58:56;14.37;;;4.43;;
10295;SDS011;5193;51.032;6.356;2023-05-27T10:01:24;9.83;;;3.60;;
10295;SDS011;5193;51.032;6.356;2023-05-27T10:03:53;12.97;;;4.00;;
10295;SDS011;5193;51.032;6.356;2023-05-27T10:06:19;12.93;;;4.47;;
10295;SDS011;5193;51.032;6.356;2023-05-27T10:08:46;12.93;;;3.77;;
10295;SDS011;5193;51.032;6.356;2023-05-27T10:11:12;11.53;;;3.80;;
10295;SDS011;5193;51.032;6.356;2023-05-27T10:13:38;11.97;;;4.60;;
10295;SDS011;5193;51.032;6.356;2023-05-27T10:16:04;10.83;;;4.23;;
10295;SDS011;5193;51.032;6.356;2023-05-27T10:18:31;13.20;;;4.10;;
10295;SDS011;5193;51.032;6.356;2023-05-27T10:20:59;10.67;;;4.30;;
10295;SDS011;5193;51.032;6.356;2023-05-27T10:23:28;11.23;;;4.47;;
10295;SDS011;5193;51.032;6.356;2023-05-27T10:25:56;14.50;;;4.37;;
10295;SDS011;5193;51.032;6.356;2023-05-27T10:28:27;14.57;;;4.37;;
10295;SDS011;5193;51.032;6.356;2023-05-27T10:33:38;15.07;;;5.37;;
10295;SDS011;5193;51.032;6.356;2023-05-27T10:36:09;11.80;;;4.33;;
10295;SDS011;5193;51.032;6.356;2023-05-27T10:38:40;15.27;;;4.60;;
10295;SDS011;5193;51.032;6.356;2023-05-27T10:41:06;15.33;;;4.90;;
10295;SDS011;5193;51.032;6.356;2023-05-27T10:43:33;15.67;;;4.60;;
10295;SDS011;5193;51.032;6.356;2023-05-27T10:46:03;16.10;;;4.67;;
10295;SDS011;5193;51.032;6.356;2023-05-27T10:48:32;15.20;;;4.67;;
10295;SDS011;5193;51.032;6.356;2023-05-27T10:50:58;20.00;;;4.97;;
10295;SDS011;5193;51.032;6.356;2023-05-27T10:53:25;14.93;;;5.03;;
10295;SDS011;5193;51.032;6.356;2023-05-27T10:55:52;18.70;;;4.83;;
10295;SDS011;5193;51.032;6.356;2023-05-27T10:58:18;16.40;;;5.10;;
10295;SDS011;5193;51.032;6.356;2023-05-27T11:00:49;14.20;;;4.60;;
10295;SDS011;5193;51.032;6.356;2023-05-27T11:03:20;15.30;;;4.80;;
10295;SDS011;5193;51.032;6.356;2023-05-27T11:05:56;11.97;;;4.47;;
10295;SDS011;5193;51.032;6.356;2023-05-27T11:08:25;10.60;;;4.30;;
10295;SDS011;5193;51.032;6.356;2023-05-27T11:10:56;15.73;;;5.23;;
10295;SDS011;5193;51.032;6.356;2023-05-27T11:13:33;10.33;;;4.20;;
10295;SDS011;5193;51.032;6.356;2023-05-27T11:16:02;15.10;;;5.07;;
10295;SDS011;5193;51.032;6.356;2023-05-27T11:18:36;12.80;;;4.97;;
10295;SDS011;5193;51.032;6.356;2023-05-27T11:21:11;11.77;;;4.90;;
10295;SDS011;5193;51.032;6.356;2023-05-27T11:23:47;12.30;;;4.70;;
10295;SDS011;5193;51.032;6.356;2023-05-27T11:26:17;12.00;;;4.30;;
10295;SDS011;5193;51.032;6.356;2023-05-27T11:28:55;12.27;;;4.33;;
10295;SDS011;5193;51.032;6.356;2023-05-27T11:31:28;12.15;;;4.70;;
10295;SDS011;5193;51.032;6.356;2023-05-27T11:33:56;9.40;;;4.43;;
10295;SDS011;5193;51.032;6.356;2023-05-27T11:36:24;16.02;;;4.82;;
10295;SDS011;5193;51.032;6.356;2023-05-27T11:38:55;16.60;;;4.57;;
10295;SDS011;5193;51.032;6.356;2023-05-27T11:41:26;13.37;;;3.93;;
10295;SDS011;5193;51.032;6.356;2023-05-27T11:43:57;12.00;;;4.60;;
10295;SDS011;5193;51.032;6.356;2023-05-27T11:46:36;17.60;;;5.00;;
10295;SDS011;5193;51.032;6.356;2023-05-27T11:49:03;13.17;;;4.83;;
10295;SDS011;5193;51.032;6.356;2023-05-27T11:51:30;14.30;;;5.07;;
10295;SDS011;5193;51.032;6.356;2023-05-27T11:53:57;18.20;;;5.03;;
10295;SDS011;5193;51.032;6.356;2023-05-27T11:56:23;14.33;;;4.90;;
10295;SDS011;5193;51.032;6.356;2023-05-27T11:58:50;16.07;;;5.27;;
10295;SDS011;5193;51.032;6.356;2023-05-27T12:01:16;15.40;;;4.63;;
10295;SDS011;5193;51.032;6.356;2023-05-27T12:03:41;11.23;;;4.47;;
10295;SDS011;5193;51.032;6.356;2023-05-27T12:06:07;10.53;;;4.60;;
10295;SDS011;5193;51.032;6.356;2023-05-27T12:08:32;13.10;;;5.53;;
10295;SDS011;5193;51.032;6.356;2023-05-27T12:10:58;12.40;;;4.80;;
10295;SDS011;5193;51.032;6.356;2023-05-27T12:13:23;10.67;;;4.20;;
10295;SDS011;5193;51.032;6.356;2023-05-27T12:15:49;15.47;;;4.57;;
10295;SDS011;5193;51.032;6.356;2023-05-27T12:18:15;12.20;;;4.80;;
10295;SDS011;5193;51.032;6.356;2023-05-27T12:20:41;14.47;;;4.73;;
10295;SDS011;5193;51.032;6.356;2023-05-27T12:23:08;12.93;;;4.80;;
10295;SDS011;5193;51.032;6.356;2023-05-27T12:25:34;17.60;;;5.40;;
10295;SDS011;5193;51.032;6.356;2023-05-27T12:27:59;12.40;;;4.40;;
10295;SDS011;5193;51.032;6.356;2023-05-27T12:30:25;22.77;;;5.17;;
10295;SDS011;5193;51.032;6.356;2023-05-27T12:32:50;17.60;;;5.20;;
10295;SDS011;5193;51.032;6.356;2023-05-27T12:35:16;12.27;;;4.60;;
10295;SDS011;5193;51.032;6.356;2023-05-27T12:37:41;12.90;;;5.00;;
10295;SDS011;5193;51.032;6.356;2023-05-27T12:40:07;12.87;;;4.87;;
10295;SDS011;5193;51.032;6.356;2023-05-27T12:42:37;13.93;;;4.70;;
10295;SDS011;5193;51.032;6.356;2023-05-27T12:45:03;12.43;;;4.70;;
10295;SDS011;5193;51.032;6.356;2023-05-27T12:47:29;14.83;;;4.83;;
10295;SDS011;5193;51.032;6.356;2023-05-27T12:49:55;18.17;;;4.47;;
10295;SDS011;5193;51.032;6.356;2023-05-27T12:52:20;10.53;;;4.30;;
10295;SDS011;5193;51.032;6.356;2023-05-27T12:54:46;22.17;;;5.77;;
10295;SDS011;5193;51.032;6.356;2023-05-27T12:57:12;11.03;;;4.20;;
10295;SDS011;5193;51.032;6.356;2023-05-27T12:59:37;10.80;;;4.30;;
10295;SDS011;5193;51.032;6.356;2023-05-27T13:02:03;15.60;;;4.73;;
10295;SDS011;5193;51.032;6.356;2023-05-27T13:04:30;11.00;;;3.53;;
10295;SDS011;5193;51.032;6.356;2023-05-27T13:06:55;14.77;;;4.50;;
10295;SDS011;5193;51.032;6.356;2023-05-27T13:09:21;12.80;;;4.60;;
10295;SDS011;5193;51.032;6.356;2023-05-27T13:11:47;11.47;;;4.20;;
10295;SDS011;5193;51.032;6.356;2023-05-27T13:14:12;10.93;;;3.90;;
10295;SDS011;5193;51.032;6.356;2023-05-27T13:16:38;9.50;;;3.87;;
10295;SDS011;5193;51.032;6.356;2023-05-27T13:19:03;12.73;;;4.70;;
10295;SDS011;5193;51.032;6.356;2023-05-27T13:21:30;10.80;;;4.30;;
10295;SDS011;5193;51.032;6.356;2023-05-27T13:23:56;10.00;;;4.00;;
10295;SDS011;5193;51.032;6.356;2023-05-27T13:26:22;11.60;;;4.47;;
10295;SDS011;5193;51.032;6.356;2023-05-27T13:28:48;12.43;;;4.07;;
10295;SDS011;5193;51.032;6.356;2023-05-27T13:31:14;11.70;;;4.00;;
10295;SDS011;5193;51.032;6.356;2023-05-27T13:33:43;12.83;;;3.93;;
10295;SDS011;5193;51.032;6.356;2023-05-27T13:36:09;13.03;;;3.60;;
10295;SDS011;5193;51.032;6.356;2023-05-27T13:38:34;11.03;;;3.80;;
10295;SDS011;5193;51.032;6.356;2023-05-27T13:41:00;7.40;;;3.90;;
10295;SDS011;5193;51.032;6.356;2023-05-27T13:43:25;10.40;;;3.80;;
10295;SDS011;5193;51.032;6.356;2023-05-27T13:45:51;14.10;;;3.83;;
10295;SDS011;5193;51.032;6.356;2023-05-27T13:48:17;13.07;;;3.80;;
10295;SDS011;5193;51.032;6.356;2023-05-27T13:50:42;8.55;;;3.83;;
10295;SDS011;5193;51.032;6.356;2023-05-27T13:53:08;10.47;;;4.23;;
10295;SDS011;5193;51.032;6.356;2023-05-27T13:55:33;9.10;;;3.50;;
10295;SDS011;5193;51.032;6.356;2023-05-27T13:57:59;12.38;;;4.10;;
10295;SDS011;5193;51.032;6.356;2023-05-27T14:00:25;8.88;;;3.75;;
10295;SDS011;5193;51.032;6.356;2023-05-27T14:02:50;10.13;;;3.70;;
10295;SDS011;5193;51.032;6.356;2023-05-27T14:05:19;9.93;;;3.67;;
10295;SDS011;5193;51.032;6.356;2023-05-27T14:07:47;14.95;;;4.60;;
10295;SDS011;5193;51.032;6.356;2023-05-27T14:10:12;12.90;;;4.25;;
10295;SDS011;5193;51.032;6.356;2023-05-27T14:12:38;11.85;;;3.85;;
10295;SDS011;5193;51.032;6.356;2023-05-27T14:15:04;9.05;;;3.75;;
10295;SDS011;5193;51.032;6.356;2023-05-27T14:17:30;12.10;;;3.90;;
10295;SDS011;5193;51.032;6.356;2023-05-27T14:19:56;9.95;;;3.58;;
10295;SDS011;5193;51.032;6.356;2023-05-27T14:22:21;9.98;;;3.78;;
10295;SDS011;5193;51.032;6.356;2023-05-27T14:24:48;9.32;;;3.85;;
10295;SDS011;5193;51.032;6.356;2023-05-27T14:27:14;13.75;;;3.85;;
10295;SDS011;5193;51.032;6.356;2023-05-27T14:29:40;11.82;;;4.00;;
10295;SDS011;5193;51.032;6.356;2023-05-27T14:32:06;9.93;;;3.83;;
10295;SDS011;5193;51.032;6.356;2023-05-27T14:34:32;9.65;;;4.00;;
10295;SDS011;5193;51.032;6.356;2023-05-27T14:36:58;8.55;;;3.28;;
10295;SDS011;5193;51.032;6.356;2023-05-27T14:39:23;11.52;;;4.00;;
10295;SDS011;5193;51.032;6.356;2023-05-27T14:41:49;10.23;;;3.80;;
10295;SDS011;5193;51.032;6.356;2023-05-27T14:44:15;11.55;;;3.95;;
10295;SDS011;5193;51.032;6.356;2023-05-27T14:46:40;10.63;;;3.72;;
10295;SDS011;5193;51.032;6.356;2023-05-27T14:49:06;10.60;;;3.95;;
10295;SDS011;5193;51.032;6.356;2023-05-27T14:51:31;10.20;;;4.07;;
10295;SDS011;5193;51.032;6.356;2023-05-27T14:53:57;10.88;;;3.80;;
10295;SDS011;5193;51.032;6.356;2023-05-27T14:56:22;12.07;;;4.22;;